sensor_id;sensor_type;location;lat;lon;timestamp;P1;durP1;ratioP1;P2;durP2;ratioP2
7833;SDS011;3962;42.696;23.354;2023-05-19T00:02:15;16.17;;;8.77;;
7833;SDS011;3962;42.696;23.354;2023-05-19T00:04:45;12.83;;;8.90;;
7833;SDS011;3962;42.696;23.354;2023-05-19T00:07:14;12.80;;;9.23;;
7833;SDS011;3962;42.696;23.354;2023-05-19T00:09:45;12.13;;;9.13;;
7833;SDS011;3962;42.696;23.354;2023-05-19T00:12:12;12.87;;;9.07;;
7833;SDS011;3962;42.696;23.354;2023-05-19T00:14:40;12.10;;;7.97;;
7833;SDS011;3962;42.696;23.354;2023-05-19T00:17:07;12.27;;;8.33;;
7833;SDS011;3962;42.696;23.354;2023-05-19T00:19:35;11.67;;;8.53;;
7833;SDS011;3962;42.696;23.354;2023-05-19T00:22:02;10.63;;;8.37;;
7833;SDS011;3962;42.696;23.354;2023-05-19T00:24:30;13.00;;;8.33;;
7833;SDS011;3962;42.696;23.354;2023-05-19T00:26:58;10.77;;;8.10;;
7833;SDS011;3962;42.696;23.354;2023-05-19T00:29:25;11.07;;;8.27;;
7833;SDS011;3962;42.696;23.354;2023-05-19T00:31:52;11.97;;;8.30;;
7833;SDS011;3962;42.696;23.354;2023-05-19T00:34:18;10.80;;;8.43;;
7833;SDS011;3962;42.696;23.354;2023-05-19T00:36:45;12.37;;;8.30;;
7833;SDS011;3962;42.696;23.354;2023-05-19T00:39:12;12.37;;;9.17;;
7833;SDS011;3962;42.696;23.354;2023-05-19T00:41:39;14.40;;;9.20;;
7833;SDS011;3962;42.696;23.354;2023-05-19T00:44:07;13.07;;;9.53;;
7833;SDS011;3962;42.696;23.354;2023-05-19T00:46:34;12.13;;;8.67;;
7833;SDS011;3962;42.696;23.354;2023-05-19T00:49:02;12.83;;;8.80;;
7833;SDS011;3962;42.696;23.354;2023-05-19T00:51:28;12.00;;;8.73;;
7833;SDS011;3962;42.696;23.354;2023-05-19T00:53:56;11.93;;;8.13;;
7833;SDS011;3962;42.696;23.354;2023-05-19T00:56:23;12.80;;;8.80;;
7833;SDS011;3962;42.696;23.354;2023-05-19T00:58:50;11.93;;;9.10;;
7833;SDS011;3962;42.696;23.354;2023-05-19T01:01:18;11.97;;;8.50;;
7833;SDS011;3962;42.696;23.354;2023-05-19T01:03:46;13.87;;;9.07;;
7833;SDS011;3962;42.696;23.354;2023-05-19T01:06:13;14.57;;;9.73;;
7833;SDS011;3962;42.696;23.354;2023-05-19T01:08:43;15.50;;;9.67;;
7833;SDS011;3962;42.696;23.354;2023-05-19T01:11:11;22.07;;;9.93;;
7833;SDS011;3962;42.696;23.354;2023-05-19T01:13:38;15.33;;;10.27;;
7833;SDS011;3962;42.696;23.354;2023-05-19T01:16:06;12.63;;;9.50;;
7833;SDS011;3962;42.696;23.354;2023-05-19T01:18:40;15.77;;;10.30;;
7833;SDS011;3962;42.696;23.354;2023-05-19T01:21:28;18.40;;;9.90;;
7833;SDS011;3962;42.696;23.354;2023-05-19T01:24:22;15.97;;;10.77;;
7833;SDS011;3962;42.696;23.354;2023-05-19T01:27:13;17.63;;;11.83;;
7833;SDS011;3962;42.696;23.354;2023-05-19T01:30:08;17.63;;;11.90;;
7833;SDS011;3962;42.696;23.354;2023-05-19T01:32:42;16.47;;;11.83;;
7833;SDS011;3962;42.696;23.354;2023-05-19T01:35:10;18.67;;;11.97;;
7833;SDS011;3962;42.696;23.354;2023-05-19T01:37:40;19.27;;;13.00;;
7833;SDS011;3962;42.696;23.354;2023-05-19T01:40:09;22.10;;;12.37;;
7833;SDS011;3962;42.696;23.354;2023-05-19T01:42:37;19.40;;;12.47;;
7833;SDS011;3962;42.696;23.354;2023-05-19T01:45:06;17.33;;;12.00;;
7833;SDS011;3962;42.696;23.354;2023-05-19T01:47:36;20.67;;;12.97;;
7833;SDS011;3962;42.696;23.354;2023-05-19T01:50:08;19.37;;;12.57;;
7833;SDS011;3962;42.696;23.354;2023-05-19T01:52:35;17.00;;;11.90;;
7833;SDS011;3962;42.696;23.354;2023-05-19T01:55:02;18.53;;;12.03;;
7833;SDS011;3962;42.696;23.354;2023-05-19T01:57:31;17.67;;;11.67;;
7833;SDS011;3962;42.696;23.354;2023-05-19T02:00:07;16.00;;;11.27;;
7833;SDS011;3962;42.696;23.354;2023-05-19T02:02:42;17.17;;;11.23;;
7833;SDS011;3962;42.696;23.354;2023-05-19T02:05:20;17.27;;;11.77;;
7833;SDS011;3962;42.696;23.354;2023-05-19T02:07:56;17.30;;;11.60;;
7833;SDS011;3962;42.696;23.354;2023-05-19T02:10:27;17.40;;;11.57;;
7833;SDS011;3962;42.696;23.354;2023-05-19T02:12:57;18.77;;;11.70;;
7833;SDS011;3962;42.696;23.354;2023-05-19T02:15:29;19.80;;;13.57;;
7833;SDS011;3962;42.696;23.354;2023-05-19T02:18:01;19.70;;;12.00;;
7833;SDS011;3962;42.696;23.354;2023-05-19T02:20:29;17.77;;;12.30;;
7833;SDS011;3962;42.696;23.354;2023-05-19T02:22:56;20.47;;;12.90;;
7833;SDS011;3962;42.696;23.354;2023-05-19T02:25:23;20.23;;;12.87;;
7833;SDS011;3962;42.696;23.354;2023-05-19T02:27:51;20.63;;;13.47;;
7833;SDS011;3962;42.696;23.354;2023-05-19T02:30:18;18.40;;;13.00;;
7833;SDS011;3962;42.696;23.354;2023-05-19T02:32:46;22.90;;;12.63;;
7833;SDS011;3962;42.696;23.354;2023-05-19T02:35:13;20.43;;;12.30;;
7833;SDS011;3962;42.696;23.354;2023-05-19T02:37:40;21.13;;;12.57;;
7833;SDS011;3962;42.696;23.354;2023-05-19T02:40:07;19.40;;;12.93;;
7833;SDS011;3962;42.696;23.354;2023-05-19T02:42:35;20.87;;;13.50;;
7833;SDS011;3962;42.696;23.354;2023-05-19T02:45:02;18.93;;;12.63;;
7833;SDS011;3962;42.696;23.354;2023-05-19T02:47:29;19.93;;;13.37;;
7833;SDS011;3962;42.696;23.354;2023-05-19T02:49:57;23.27;;;13.00;;
7833;SDS011;3962;42.696;23.354;2023-05-19T02:52:24;23.67;;;13.50;;
7833;SDS011;3962;42.696;23.354;2023-05-19T02:54:50;19.50;;;14.00;;
7833;SDS011;3962;42.696;23.354;2023-05-19T02:57:17;22.47;;;13.77;;
7833;SDS011;3962;42.696;23.354;2023-05-19T02:59:44;21.47;;;13.00;;
7833;SDS011;3962;42.696;23.354;2023-05-19T03:02:11;22.50;;;13.83;;
7833;SDS011;3962;42.696;23.354;2023-05-19T03:04:38;24.17;;;13.90;;
7833;SDS011;3962;42.696;23.354;2023-05-19T03:07:08;21.30;;;13.67;;
7833;SDS011;3962;42.696;23.354;2023-05-19T03:09:37;22.40;;;14.40;;
7833;SDS011;3962;42.696;23.354;2023-05-19T03:12:05;19.40;;;12.53;;
7833;SDS011;3962;42.696;23.354;2023-05-19T03:14:32;23.73;;;13.87;;
7833;SDS011;3962;42.696;23.354;2023-05-19T03:17:01;25.67;;;14.70;;
7833;SDS011;3962;42.696;23.354;2023-05-19T03:19:28;21.83;;;14.13;;
7833;SDS011;3962;42.696;23.354;2023-05-19T03:21:56;21.67;;;13.43;;
7833;SDS011;3962;42.696;23.354;2023-05-19T03:24:24;23.77;;;13.60;;
7833;SDS011;3962;42.696;23.354;2023-05-19T03:26:51;23.00;;;13.27;;
7833;SDS011;3962;42.696;23.354;2023-05-19T03:29:18;21.30;;;13.17;;
7833;SDS011;3962;42.696;23.354;2023-05-19T03:31:45;20.00;;;13.70;;
7833;SDS011;3962;42.696;23.354;2023-05-19T03:34:12;20.50;;;12.80;;
7833;SDS011;3962;42.696;23.354;2023-05-19T03:36:39;23.00;;;13.70;;
7833;SDS011;3962;42.696;23.354;2023-05-19T03:39:06;24.57;;;13.93;;
7833;SDS011;3962;42.696;23.354;2023-05-19T03:41:34;21.23;;;13.57;;
7833;SDS011;3962;42.696;23.354;2023-05-19T03:44:01;23.20;;;12.90;;
7833;SDS011;3962;42.696;23.354;2023-05-19T03:46:28;21.77;;;12.23;;
7833;SDS011;3962;42.696;23.354;2023-05-19T03:48:55;16.30;;;10.20;;
7833;SDS011;3962;42.696;23.354;2023-05-19T03:51:22;30.73;;;13.87;;
7833;SDS011;3962;42.696;23.354;2023-05-19T03:53:49;27.00;;;15.20;;
7833;SDS011;3962;42.696;23.354;2023-05-19T03:56:16;23.73;;;12.80;;
7833;SDS011;3962;42.696;23.354;2023-05-19T03:58:44;36.27;;;14.17;;
7833;SDS011;3962;42.696;23.354;2023-05-19T04:01:12;37.50;;;15.20;;
7833;SDS011;3962;42.696;23.354;2023-05-19T04:03:39;20.87;;;11.07;;
7833;SDS011;3962;42.696;23.354;2023-05-19T04:06:06;25.73;;;12.67;;
7833;SDS011;3962;42.696;23.354;2023-05-19T04:08:34;22.77;;;12.70;;
7833;SDS011;3962;42.696;23.354;2023-05-19T04:11:01;20.67;;;12.57;;
7833;SDS011;3962;42.696;23.354;2023-05-19T04:13:29;18.77;;;12.30;;
7833;SDS011;3962;42.696;23.354;2023-05-19T04:18:52;19.47;;;11.90;;
7833;SDS011;3962;42.696;23.354;2023-05-19T04:21:20;22.43;;;12.13;;
7833;SDS011;3962;42.696;23.354;2023-05-19T04:23:50;22.50;;;12.00;;
7833;SDS011;3962;42.696;23.354;2023-05-19T04:26:18;18.50;;;12.20;;
7833;SDS011;3962;42.696;23.354;2023-05-19T04:28:48;18.23;;;11.73;;
7833;SDS011;3962;42.696;23.354;2023-05-19T04:34:15;21.00;;;12.63;;
7833;SDS011;3962;42.696;23.354;2023-05-19T04:39:40;21.23;;;13.30;;
7833;SDS011;3962;42.696;23.354;2023-05-19T04:42:11;20.00;;;11.83;;
7833;SDS011;3962;42.696;23.354;2023-05-19T04:44:38;23.10;;;12.27;;
7833;SDS011;3962;42.696;23.354;2023-05-19T04:47:06;21.10;;;13.07;;
7833;SDS011;3962;42.696;23.354;2023-05-19T04:49:35;22.53;;;13.77;;
7833;SDS011;3962;42.696;23.354;2023-05-19T04:52:04;21.30;;;13.50;;
7833;SDS011;3962;42.696;23.354;2023-05-19T04:54:34;20.13;;;12.37;;
7833;SDS011;3962;42.696;23.354;2023-05-19T04:57:03;23.00;;;13.20;;
7833;SDS011;3962;42.696;23.354;2023-05-19T04:59:30;20.47;;;12.97;;
7833;SDS011;3962;42.696;23.354;2023-05-19T05:01:58;28.67;;;17.90;;
7833;SDS011;3962;42.696;23.354;2023-05-19T05:04:25;21.27;;;13.40;;
7833;SDS011;3962;42.696;23.354;2023-05-19T05:06:53;21.57;;;13.10;;
7833;SDS011;3962;42.696;23.354;2023-05-19T05:09:21;19.30;;;11.70;;
7833;SDS011;3962;42.696;23.354;2023-05-19T05:11:49;21.03;;;12.83;;
7833;SDS011;3962;42.696;23.354;2023-05-19T05:14:18;18.97;;;11.80;;
7833;SDS011;3962;42.696;23.354;2023-05-19T05:16:45;17.60;;;12.67;;
7833;SDS011;3962;42.696;23.354;2023-05-19T05:19:13;20.00;;;12.43;;
7833;SDS011;3962;42.696;23.354;2023-05-19T05:21:40;20.27;;;12.07;;
7833;SDS011;3962;42.696;23.354;2023-05-19T05:24:10;18.07;;;11.93;;
7833;SDS011;3962;42.696;23.354;2023-05-19T05:26:38;21.07;;;12.87;;
7833;SDS011;3962;42.696;23.354;2023-05-19T05:29:06;16.03;;;10.93;;
7833;SDS011;3962;42.696;23.354;2023-05-19T05:31:34;17.03;;;10.87;;
7833;SDS011;3962;42.696;23.354;2023-05-19T05:34:01;21.37;;;11.53;;
7833;SDS011;3962;42.696;23.354;2023-05-19T05:36:28;20.08;;;12.93;;
7833;SDS011;3962;42.696;23.354;2023-05-19T05:38:56;21.00;;;11.87;;
7833;SDS011;3962;42.696;23.354;2023-05-19T05:41:24;18.23;;;10.80;;
7833;SDS011;3962;42.696;23.354;2023-05-19T05:43:53;17.47;;;10.93;;
7833;SDS011;3962;42.696;23.354;2023-05-19T05:46:20;18.20;;;12.17;;
7833;SDS011;3962;42.696;23.354;2023-05-19T05:48:48;18.97;;;11.67;;
7833;SDS011;3962;42.696;23.354;2023-05-19T05:51:15;15.10;;;10.30;;
7833;SDS011;3962;42.696;23.354;2023-05-19T05:53:44;18.43;;;10.80;;
7833;SDS011;3962;42.696;23.354;2023-05-19T05:56:16;17.33;;;10.60;;
7833;SDS011;3962;42.696;23.354;2023-05-19T05:58:46;17.60;;;11.30;;
7833;SDS011;3962;42.696;23.354;2023-05-19T06:01:13;17.37;;;10.20;;
7833;SDS011;3962;42.696;23.354;2023-05-19T06:03:41;17.00;;;10.67;;
7833;SDS011;3962;42.696;23.354;2023-05-19T06:06:09;16.70;;;9.73;;
7833;SDS011;3962;42.696;23.354;2023-05-19T06:08:37;15.07;;;10.63;;
7833;SDS011;3962;42.696;23.354;2023-05-19T06:11:04;13.37;;;9.50;;
7833;SDS011;3962;42.696;23.354;2023-05-19T06:13:33;13.80;;;9.50;;
7833;SDS011;3962;42.696;23.354;2023-05-19T06:16:02;14.53;;;9.50;;
7833;SDS011;3962;42.696;23.354;2023-05-19T06:18:30;15.07;;;9.10;;
7833;SDS011;3962;42.696;23.354;2023-05-19T06:20:57;15.53;;;9.47;;
7833;SDS011;3962;42.696;23.354;2023-05-19T06:23:25;18.17;;;9.80;;
7833;SDS011;3962;42.696;23.354;2023-05-19T06:25:53;15.73;;;9.03;;
7833;SDS011;3962;42.696;23.354;2023-05-19T06:28:20;13.17;;;9.20;;
7833;SDS011;3962;42.696;23.354;2023-05-19T06:30:47;16.17;;;10.30;;
7833;SDS011;3962;42.696;23.354;2023-05-19T06:33:15;15.73;;;10.00;;
7833;SDS011;3962;42.696;23.354;2023-05-19T06:35:42;14.20;;;8.70;;
7833;SDS011;3962;42.696;23.354;2023-05-19T06:38:10;11.47;;;7.57;;
7833;SDS011;3962;42.696;23.354;2023-05-19T06:40:37;12.70;;;7.57;;
7833;SDS011;3962;42.696;23.354;2023-05-19T06:43:06;11.17;;;8.27;;
7833;SDS011;3962;42.696;23.354;2023-05-19T06:45:33;11.73;;;7.40;;
7833;SDS011;3962;42.696;23.354;2023-05-19T06:48:00;13.67;;;7.87;;
7833;SDS011;3962;42.696;23.354;2023-05-19T06:50:29;11.20;;;8.03;;
7833;SDS011;3962;42.696;23.354;2023-05-19T06:52:56;16.40;;;8.63;;
7833;SDS011;3962;42.696;23.354;2023-05-19T06:55:23;11.97;;;7.77;;
7833;SDS011;3962;42.696;23.354;2023-05-19T06:57:50;18.80;;;9.50;;
7833;SDS011;3962;42.696;23.354;2023-05-19T07:00:17;14.17;;;8.43;;
7833;SDS011;3962;42.696;23.354;2023-05-19T07:02:45;11.87;;;7.70;;
7833;SDS011;3962;42.696;23.354;2023-05-19T07:05:12;9.60;;;6.30;;
7833;SDS011;3962;42.696;23.354;2023-05-19T07:07:40;9.23;;;6.67;;
7833;SDS011;3962;42.696;23.354;2023-05-19T07:10:07;11.77;;;7.10;;
7833;SDS011;3962;42.696;23.354;2023-05-19T07:12:36;12.73;;;7.13;;
7833;SDS011;3962;42.696;23.354;2023-05-19T07:15:03;9.37;;;6.67;;
7833;SDS011;3962;42.696;23.354;2023-05-19T07:17:31;9.43;;;6.77;;
7833;SDS011;3962;42.696;23.354;2023-05-19T07:19:57;11.57;;;7.87;;
7833;SDS011;3962;42.696;23.354;2023-05-19T07:22:25;11.33;;;6.40;;
7833;SDS011;3962;42.696;23.354;2023-05-19T07:24:54;8.63;;;6.13;;
7833;SDS011;3962;42.696;23.354;2023-05-19T07:27:21;8.23;;;6.33;;
7833;SDS011;3962;42.696;23.354;2023-05-19T07:29:48;12.97;;;7.40;;
7833;SDS011;3962;42.696;23.354;2023-05-19T07:32:15;8.67;;;6.77;;
7833;SDS011;3962;42.696;23.354;2023-05-19T07:34:41;10.10;;;6.77;;
7833;SDS011;3962;42.696;23.354;2023-05-19T07:37:08;11.20;;;5.93;;
7833;SDS011;3962;42.696;23.354;2023-05-19T07:39:40;11.93;;;6.57;;
7833;SDS011;3962;42.696;23.354;2023-05-19T07:42:09;14.60;;;8.70;;
7833;SDS011;3962;42.696;23.354;2023-05-19T07:44:36;9.47;;;6.90;;
7833;SDS011;3962;42.696;23.354;2023-05-19T07:47:03;12.17;;;6.67;;
7833;SDS011;3962;42.696;23.354;2023-05-19T07:49:30;8.30;;;6.63;;
7833;SDS011;3962;42.696;23.354;2023-05-19T07:51:57;10.33;;;7.23;;
7833;SDS011;3962;42.696;23.354;2023-05-19T07:54:24;11.23;;;7.10;;
7833;SDS011;3962;42.696;23.354;2023-05-19T07:56:51;12.07;;;7.23;;
7833;SDS011;3962;42.696;23.354;2023-05-19T07:59:20;11.07;;;8.23;;
7833;SDS011;3962;42.696;23.354;2023-05-19T08:01:47;11.30;;;6.93;;
7833;SDS011;3962;42.696;23.354;2023-05-19T08:04:14;12.63;;;7.13;;
7833;SDS011;3962;42.696;23.354;2023-05-19T08:06:41;12.17;;;7.53;;
7833;SDS011;3962;42.696;23.354;2023-05-19T08:09:08;11.33;;;7.13;;
7833;SDS011;3962;42.696;23.354;2023-05-19T08:11:36;13.47;;;7.83;;
7833;SDS011;3962;42.696;23.354;2023-05-19T08:14:03;10.53;;;7.37;;
7833;SDS011;3962;42.696;23.354;2023-05-19T08:16:31;13.43;;;9.30;;
7833;SDS011;3962;42.696;23.354;2023-05-19T08:18:59;18.63;;;9.60;;
7833;SDS011;3962;42.696;23.354;2023-05-19T08:21:29;8.67;;;7.03;;
7833;SDS011;3962;42.696;23.354;2023-05-19T08:24:00;14.77;;;7.07;;
7833;SDS011;3962;42.696;23.354;2023-05-19T08:26:29;11.67;;;8.03;;
7833;SDS011;3962;42.696;23.354;2023-05-19T08:28:56;12.50;;;7.67;;
7833;SDS011;3962;42.696;23.354;2023-05-19T08:31:24;12.37;;;7.83;;
7833;SDS011;3962;42.696;23.354;2023-05-19T08:33:53;14.07;;;8.47;;
7833;SDS011;3962;42.696;23.354;2023-05-19T08:36:20;14.70;;;7.33;;
7833;SDS011;3962;42.696;23.354;2023-05-19T08:38:47;15.73;;;7.93;;
7833;SDS011;3962;42.696;23.354;2023-05-19T08:41:14;11.63;;;7.53;;
7833;SDS011;3962;42.696;23.354;2023-05-19T08:43:41;14.30;;;8.07;;
7833;SDS011;3962;42.696;23.354;2023-05-19T08:46:09;14.30;;;8.13;;
7833;SDS011;3962;42.696;23.354;2023-05-19T08:48:41;13.70;;;8.57;;
7833;SDS011;3962;42.696;23.354;2023-05-19T08:51:13;13.50;;;7.90;;
7833;SDS011;3962;42.696;23.354;2023-05-19T08:53:46;13.33;;;8.23;;
7833;SDS011;3962;42.696;23.354;2023-05-19T08:56:17;12.57;;;8.17;;
7833;SDS011;3962;42.696;23.354;2023-05-19T08:58:48;10.50;;;7.33;;
7833;SDS011;3962;42.696;23.354;2023-05-19T09:01:16;11.80;;;8.60;;
7833;SDS011;3962;42.696;23.354;2023-05-19T09:03:46;11.73;;;7.33;;
7833;SDS011;3962;42.696;23.354;2023-05-19T09:06:18;13.07;;;9.03;;
7833;SDS011;3962;42.696;23.354;2023-05-19T09:08:45;14.87;;;8.20;;
7833;SDS011;3962;42.696;23.354;2023-05-19T09:11:12;12.13;;;8.63;;
7833;SDS011;3962;42.696;23.354;2023-05-19T09:13:43;14.50;;;7.87;;
7833;SDS011;3962;42.696;23.354;2023-05-19T09:16:10;12.93;;;8.33;;
7833;SDS011;3962;42.696;23.354;2023-05-19T09:18:37;12.13;;;7.90;;
7833;SDS011;3962;42.696;23.354;2023-05-19T09:21:05;11.43;;;8.13;;
7833;SDS011;3962;42.696;23.354;2023-05-19T09:23:38;10.90;;;8.20;;
7833;SDS011;3962;42.696;23.354;2023-05-19T09:26:07;11.47;;;7.97;;
7833;SDS011;3962;42.696;23.354;2023-05-19T09:28:35;12.67;;;9.27;;
7833;SDS011;3962;42.696;23.354;2023-05-19T09:31:11;11.43;;;8.40;;
7833;SDS011;3962;42.696;23.354;2023-05-19T09:33:39;11.37;;;8.30;;
7833;SDS011;3962;42.696;23.354;2023-05-19T09:36:07;15.73;;;9.00;;
7833;SDS011;3962;42.696;23.354;2023-05-19T09:38:35;16.23;;;8.40;;
7833;SDS011;3962;42.696;23.354;2023-05-19T09:41:05;13.13;;;8.87;;
7833;SDS011;3962;42.696;23.354;2023-05-19T09:43:33;14.20;;;9.30;;
7833;SDS011;3962;42.696;23.354;2023-05-19T09:46:02;11.83;;;9.13;;
7833;SDS011;3962;42.696;23.354;2023-05-19T09:48:32;14.20;;;9.97;;
7833;SDS011;3962;42.696;23.354;2023-05-19T09:51:00;12.53;;;8.87;;
7833;SDS011;3962;42.696;23.354;2023-05-19T09:53:28;12.03;;;8.50;;
7833;SDS011;3962;42.696;23.354;2023-05-19T09:56:08;11.37;;;8.07;;
7833;SDS011;3962;42.696;23.354;2023-05-19T09:58:35;13.07;;;7.90;;
7833;SDS011;3962;42.696;23.354;2023-05-19T10:01:03;13.17;;;9.27;;
7833;SDS011;3962;42.696;23.354;2023-05-19T10:03:30;11.37;;;8.80;;
7833;SDS011;3962;42.696;23.354;2023-05-19T10:05:57;10.73;;;7.90;;
7833;SDS011;3962;42.696;23.354;2023-05-19T10:08:26;10.23;;;8.13;;
7833;SDS011;3962;42.696;23.354;2023-05-19T10:10:54;13.60;;;8.73;;
7833;SDS011;3962;42.696;23.354;2023-05-19T10:13:23;14.03;;;7.93;;
7833;SDS011;3962;42.696;23.354;2023-05-19T10:15:52;11.23;;;8.10;;
7833;SDS011;3962;42.696;23.354;2023-05-19T10:18:20;14.53;;;8.93;;
7833;SDS011;3962;42.696;23.354;2023-05-19T10:20:51;13.23;;;8.83;;
7833;SDS011;3962;42.696;23.354;2023-05-19T10:23:22;14.60;;;9.00;;
7833;SDS011;3962;42.696;23.354;2023-05-19T10:25:49;10.70;;;8.43;;
7833;SDS011;3962;42.696;23.354;2023-05-19T10:28:19;12.73;;;8.80;;
7833;SDS011;3962;42.696;23.354;2023-05-19T10:30:52;15.53;;;9.17;;
7833;SDS011;3962;42.696;23.354;2023-05-19T10:33:23;15.67;;;8.23;;
7833;SDS011;3962;42.696;23.354;2023-05-19T10:38:52;13.13;;;8.63;;
7833;SDS011;3962;42.696;23.354;2023-05-19T10:41:26;12.90;;;8.53;;
7833;SDS011;3962;42.696;23.354;2023-05-19T10:44:01;11.00;;;8.23;;
7833;SDS011;3962;42.696;23.354;2023-05-19T10:46:35;16.30;;;8.93;;
7833;SDS011;3962;42.696;23.354;2023-05-19T10:49:02;12.53;;;7.70;;
7833;SDS011;3962;42.696;23.354;2023-05-19T10:51:34;11.77;;;8.63;;
7833;SDS011;3962;42.696;23.354;2023-05-19T10:54:02;12.63;;;8.10;;
7833;SDS011;3962;42.696;23.354;2023-05-19T10:56:37;17.70;;;9.47;;
7833;SDS011;3962;42.696;23.354;2023-05-19T10:59:07;26.73;;;10.27;;
7833;SDS011;3962;42.696;23.354;2023-05-19T11:01:55;20.77;;;11.37;;
7833;SDS011;3962;42.696;23.354;2023-05-19T11:04:37;14.60;;;8.27;;
7833;SDS011;3962;42.696;23.354;2023-05-19T11:07:05;13.90;;;7.97;;
7833;SDS011;3962;42.696;23.354;2023-05-19T11:09:37;12.67;;;8.00;;
7833;SDS011;3962;42.696;23.354;2023-05-19T11:12:06;16.20;;;9.23;;
7833;SDS011;3962;42.696;23.354;2023-05-19T11:14:37;12.60;;;8.47;;
7833;SDS011;3962;42.696;23.354;2023-05-19T11:17:05;14.87;;;8.07;;
7833;SDS011;3962;42.696;23.354;2023-05-19T11:19:40;12.37;;;7.80;;
7833;SDS011;3962;42.696;23.354;2023-05-19T11:22:21;10.63;;;8.07;;
7833;SDS011;3962;42.696;23.354;2023-05-19T11:24:50;14.33;;;8.40;;
7833;SDS011;3962;42.696;23.354;2023-05-19T11:27:27;18.43;;;9.13;;
7833;SDS011;3962;42.696;23.354;2023-05-19T11:29:58;14.93;;;8.73;;
7833;SDS011;3962;42.696;23.354;2023-05-19T11:32:26;17.17;;;8.87;;
7833;SDS011;3962;42.696;23.354;2023-05-19T11:34:55;16.47;;;8.87;;
7833;SDS011;3962;42.696;23.354;2023-05-19T11:37:23;13.23;;;8.30;;
7833;SDS011;3962;42.696;23.354;2023-05-19T11:39:56;14.87;;;8.33;;
7833;SDS011;3962;42.696;23.354;2023-05-19T11:42:23;12.67;;;8.10;;
7833;SDS011;3962;42.696;23.354;2023-05-19T11:44:53;14.90;;;8.33;;
7833;SDS011;3962;42.696;23.354;2023-05-19T11:47:22;19.23;;;10.30;;
7833;SDS011;3962;42.696;23.354;2023-05-19T11:49:49;19.43;;;9.17;;
7833;SDS011;3962;42.696;23.354;2023-05-19T11:52:21;11.67;;;8.93;;
7833;SDS011;3962;42.696;23.354;2023-05-19T11:54:49;33.43;;;11.23;;
7833;SDS011;3962;42.696;23.354;2023-05-19T11:57:16;15.93;;;10.13;;
7833;SDS011;3962;42.696;23.354;2023-05-19T11:59:43;13.80;;;9.73;;
7833;SDS011;3962;42.696;23.354;2023-05-19T12:02:15;15.63;;;10.03;;
7833;SDS011;3962;42.696;23.354;2023-05-19T12:04:57;13.83;;;7.87;;
7833;SDS011;3962;42.696;23.354;2023-05-19T12:07:25;15.20;;;8.70;;
7833;SDS011;3962;42.696;23.354;2023-05-19T12:09:55;12.80;;;7.07;;
7833;SDS011;3962;42.696;23.354;2023-05-19T12:12:25;10.93;;;6.90;;
7833;SDS011;3962;42.696;23.354;2023-05-19T12:14:55;9.30;;;6.13;;
7833;SDS011;3962;42.696;23.354;2023-05-19T12:17:38;11.07;;;8.37;;
7833;SDS011;3962;42.696;23.354;2023-05-19T12:20:07;12.47;;;6.20;;
7833;SDS011;3962;42.696;23.354;2023-05-19T12:22:40;9.03;;;6.30;;
7833;SDS011;3962;42.696;23.354;2023-05-19T12:25:08;15.67;;;9.97;;
7833;SDS011;3962;42.696;23.354;2023-05-19T12:27:35;11.37;;;7.40;;
7833;SDS011;3962;42.696;23.354;2023-05-19T12:30:03;9.53;;;6.83;;
7833;SDS011;3962;42.696;23.354;2023-05-19T12:32:32;8.97;;;6.63;;
7833;SDS011;3962;42.696;23.354;2023-05-19T12:35:03;13.20;;;7.30;;
7833;SDS011;3962;42.696;23.354;2023-05-19T12:37:32;13.97;;;7.97;;
7833;SDS011;3962;42.696;23.354;2023-05-19T12:40:01;9.20;;;6.37;;
7833;SDS011;3962;42.696;23.354;2023-05-19T12:42:29;15.37;;;7.73;;
7833;SDS011;3962;42.696;23.354;2023-05-19T12:44:58;14.90;;;9.13;;
7833;SDS011;3962;42.696;23.354;2023-05-19T12:47:30;10.43;;;6.53;;
7833;SDS011;3962;42.696;23.354;2023-05-19T12:50:02;9.73;;;6.80;;
7833;SDS011;3962;42.696;23.354;2023-05-19T12:52:32;11.47;;;6.33;;
7833;SDS011;3962;42.696;23.354;2023-05-19T12:55:08;8.53;;;6.40;;
7833;SDS011;3962;42.696;23.354;2023-05-19T12:57:36;11.07;;;6.53;;
7833;SDS011;3962;42.696;23.354;2023-05-19T13:00:05;11.90;;;7.20;;
7833;SDS011;3962;42.696;23.354;2023-05-19T13:02:53;12.50;;;6.53;;
7833;SDS011;3962;42.696;23.354;2023-05-19T13:05:22;10.60;;;6.80;;
7833;SDS011;3962;42.696;23.354;2023-05-19T13:07:55;9.47;;;6.73;;
7833;SDS011;3962;42.696;23.354;2023-05-19T13:10:22;8.07;;;5.97;;
7833;SDS011;3962;42.696;23.354;2023-05-19T13:12:51;10.33;;;5.80;;
7833;SDS011;3962;42.696;23.354;2023-05-19T13:15:23;12.87;;;6.90;;
7833;SDS011;3962;42.696;23.354;2023-05-19T13:17:52;9.07;;;6.20;;
7833;SDS011;3962;42.696;23.354;2023-05-19T13:20:19;9.93;;;6.03;;
7833;SDS011;3962;42.696;23.354;2023-05-19T13:22:47;13.40;;;6.67;;
7833;SDS011;3962;42.696;23.354;2023-05-19T13:25:16;9.47;;;5.77;;
7833;SDS011;3962;42.696;23.354;2023-05-19T13:27:43;8.40;;;5.87;;
7833;SDS011;3962;42.696;23.354;2023-05-19T13:30:11;9.07;;;5.93;;
7833;SDS011;3962;42.696;23.354;2023-05-19T13:32:38;8.57;;;5.13;;
7833;SDS011;3962;42.696;23.354;2023-05-19T13:35:05;9.10;;;5.87;;
7833;SDS011;3962;42.696;23.354;2023-05-19T13:37:32;8.47;;;5.43;;
7833;SDS011;3962;42.696;23.354;2023-05-19T13:40:00;7.33;;;6.20;;
7833;SDS011;3962;42.696;23.354;2023-05-19T13:42:28;9.57;;;6.00;;
7833;SDS011;3962;42.696;23.354;2023-05-19T13:44:57;11.03;;;6.07;;
7833;SDS011;3962;42.696;23.354;2023-05-19T13:47:24;11.20;;;6.47;;
7833;SDS011;3962;42.696;23.354;2023-05-19T13:49:51;9.57;;;6.43;;
7833;SDS011;3962;42.696;23.354;2023-05-19T13:52:19;13.73;;;6.47;;
7833;SDS011;3962;42.696;23.354;2023-05-19T13:54:46;8.57;;;6.27;;
7833;SDS011;3962;42.696;23.354;2023-05-19T13:57:13;8.93;;;6.53;;
7833;SDS011;3962;42.696;23.354;2023-05-19T13:59:42;0.30;;;0.27;;
7833;SDS011;3962;42.696;23.354;2023-05-19T14:02:09;9.60;;;5.60;;
7833;SDS011;3962;42.696;23.354;2023-05-19T14:04:36;10.40;;;6.70;;
7833;SDS011;3962;42.696;23.354;2023-05-19T14:07:04;10.17;;;6.07;;
7833;SDS011;3962;42.696;23.354;2023-05-19T14:09:31;10.57;;;6.77;;
7833;SDS011;3962;42.696;23.354;2023-05-19T14:11:58;11.93;;;6.67;;
7833;SDS011;3962;42.696;23.354;2023-05-19T14:14:25;13.00;;;7.07;;
7833;SDS011;3962;42.696;23.354;2023-05-19T14:16:53;12.30;;;6.93;;
7833;SDS011;3962;42.696;23.354;2023-05-19T14:19:21;9.03;;;6.60;;
7833;SDS011;3962;42.696;23.354;2023-05-19T14:21:54;10.40;;;7.17;;
7833;SDS011;3962;42.696;23.354;2023-05-19T14:24:21;8.03;;;6.17;;
7833;SDS011;3962;42.696;23.354;2023-05-19T14:26:48;9.70;;;6.73;;
7833;SDS011;3962;42.696;23.354;2023-05-19T14:29:14;13.07;;;7.77;;
7833;SDS011;3962;42.696;23.354;2023-05-19T14:31:41;17.50;;;7.80;;
7833;SDS011;3962;42.696;23.354;2023-05-19T14:34:10;10.60;;;6.60;;
7833;SDS011;3962;42.696;23.354;2023-05-19T14:36:41;9.87;;;6.70;;
7833;SDS011;3962;42.696;23.354;2023-05-19T14:39:09;11.10;;;6.47;;
7833;SDS011;3962;42.696;23.354;2023-05-19T14:41:36;11.37;;;6.80;;
7833;SDS011;3962;42.696;23.354;2023-05-19T14:44:05;9.47;;;6.93;;
7833;SDS011;3962;42.696;23.354;2023-05-19T14:46:32;10.07;;;7.07;;
7833;SDS011;3962;42.696;23.354;2023-05-19T14:48:59;9.80;;;6.53;;
7833;SDS011;3962;42.696;23.354;2023-05-19T14:51:29;10.47;;;6.93;;
7833;SDS011;3962;42.696;23.354;2023-05-19T14:53:55;11.70;;;6.50;;
7833;SDS011;3962;42.696;23.354;2023-05-19T14:56:22;11.13;;;6.60;;
7833;SDS011;3962;42.696;23.354;2023-05-19T14:58:49;10.73;;;6.67;;
7833;SDS011;3962;42.696;23.354;2023-05-19T15:01:16;13.77;;;7.17;;
7833;SDS011;3962;42.696;23.354;2023-05-19T15:03:43;10.30;;;6.23;;
7833;SDS011;3962;42.696;23.354;2023-05-19T15:06:09;10.30;;;6.83;;
7833;SDS011;3962;42.696;23.354;2023-05-19T15:08:38;10.53;;;7.30;;